createdAt,value
2019-01-21T00:01:15.623Z,30.47
2019-01-21T00:03:43.810Z,30.10
2019-01-21T00:06:13.304Z,32.13
2019-01-21T00:08:41.989Z,32.13
2019-01-21T00:11:10.193Z,34.13
2019-01-21T00:13:39.089Z,33.80
2019-01-21T00:16:07.244Z,31.07
2019-01-21T00:18:35.648Z,30.47
2019-01-21T00:21:03.819Z,30.73
2019-01-21T00:23:31.974Z,29.57
2019-01-21T00:26:00.158Z,29.77
2019-01-21T00:28:28.315Z,31.00
2019-01-21T00:30:57.877Z,28.90
2019-01-21T00:33:26.811Z,29.52
2019-01-21T00:35:55.018Z,32.17
2019-01-21T00:38:23.220Z,28.00
2019-01-21T00:40:51.733Z,29.67
2019-01-21T00:43:20.330Z,28.67
2019-01-21T00:45:48.513Z,29.23
2019-01-21T00:48:18.003Z,31.00
2019-01-21T00:50:47.221Z,29.83
2019-01-21T00:53:15.377Z,30.17
2019-01-21T00:55:44.577Z,30.30
2019-01-21T00:58:12.750Z,33.27
2019-01-21T01:00:42.966Z,34.60
2019-01-21T01:03:11.198Z,31.30
2019-01-21T01:05:40.725Z,30.43
2019-01-21T01:08:09.186Z,34.80
2019-01-21T01:10:37.391Z,33.43
2019-01-21T01:13:06.041Z,31.80
2019-01-21T01:15:35.177Z,34.53
2019-01-21T01:18:09.393Z,30.00
2019-01-21T01:20:37.856Z,39.27
2019-01-21T01:23:06.313Z,38.00
2019-01-21T01:25:35.306Z,37.70
2019-01-21T01:28:03.542Z,38.23
2019-01-21T01:30:31.695Z,36.33
2019-01-21T01:33:00.195Z,34.53
2019-01-21T01:35:28.347Z,31.57
2019-01-21T01:37:56.569Z,35.10
2019-01-21T01:40:24.828Z,36.00
2019-01-21T01:42:53.269Z,34.07
2019-01-21T01:45:25.844Z,33.83
2019-01-21T01:48:00.198Z,35.00
2019-01-21T01:50:28.721Z,33.83
2019-01-21T01:52:57.010Z,32.93
2019-01-21T01:55:26.361Z,36.73
2019-01-21T01:57:56.143Z,42.63
2019-01-21T02:00:24.695Z,38.90
2019-01-21T02:02:54.189Z,41.37
2019-01-21T02:05:23.314Z,36.97
2019-01-21T02:07:51.411Z,38.07
2019-01-21T02:10:19.935Z,37.07
2019-01-21T02:12:48.165Z,41.13
2019-01-21T02:15:16.600Z,40.83
2019-01-21T02:17:51.847Z,45.60
2019-01-21T02:20:13.501Z,44.50
2019-01-21T02:22:44.230Z,51.17
2019-01-21T02:25:13.414Z,51.40
2019-01-21T02:28:07.698Z,46.33
2019-01-21T02:31:26.771Z,47.77
2019-01-21T02:34:09.073Z,38.70
2019-01-21T02:37:14.895Z,36.80
2019-01-21T02:40:02.608Z,36.03
2019-01-21T02:42:54.989Z,42.20
2019-01-21T02:45:51.131Z,38.13
2019-01-21T02:48:57.156Z,37.10
2019-01-21T02:52:00.103Z,43.63
2019-01-21T02:54:39.413Z,37.73
2019-01-21T02:57:51.304Z,36.87
2019-01-21T03:00:39.458Z,37.67
2019-01-21T03:03:32.066Z,43.00
2019-01-21T03:06:38.128Z,37.87
2019-01-21T03:09:29.100Z,45.23
2019-01-21T03:12:22.210Z,40.10
2019-01-21T03:15:25.491Z,41.37
2019-01-21T03:18:29.600Z,33.03
2019-01-21T03:21:32.396Z,38.80
2019-01-21T03:24:44.577Z,34.90
2019-01-21T03:28:01.370Z,37.97
2019-01-21T03:31:20.684Z,39.27
2019-01-21T03:34:46.574Z,32.53
2019-01-21T03:37:42.311Z,41.53
2019-01-21T03:40:53.757Z,37.30
2019-01-21T03:44:10.674Z,35.33
2019-01-21T03:47:20.216Z,36.13
2019-01-21T03:50:27.149Z,42.47
2019-01-21T03:53:24.037Z,43.57
2019-01-21T03:55:56.203Z,38.30
2019-01-21T03:58:40.786Z,43.03
2019-01-21T04:01:40.267Z,36.73
2019-01-21T04:04:46.343Z,35.23
2019-01-21T04:07:52.503Z,38.83
2019-01-21T04:10:59.493Z,37.60
2019-01-21T04:14:33.967Z,35.57
2019-01-21T04:17:34.431Z,38.97
2019-01-21T04:20:22.298Z,34.23
2019-01-21T04:23:11.229Z,36.57
2019-01-21T04:26:00.833Z,41.03
2019-01-21T04:28:36.396Z,39.03
2019-01-21T04:31:46.438Z,33.63
2019-01-21T04:35:05.587Z,33.73
2019-01-21T04:37:53.829Z,40.13
2019-01-21T04:41:00.905Z,33.03
2019-01-21T04:44:28.954Z,33.27
2019-01-21T04:47:37.461Z,34.00
2019-01-21T04:50:32.676Z,30.10
2019-01-21T04:53:24.213Z,31.53
2019-01-21T04:56:36.216Z,35.17
2019-01-21T04:59:29.634Z,35.13
2019-01-21T05:02:30.902Z,35.40
2019-01-21T05:05:31.170Z,35.43
2019-01-21T05:08:36.100Z,29.93
2019-01-21T05:11:29.787Z,34.57
2019-01-21T05:14:17.003Z,35.17
2019-01-21T05:17:21.130Z,36.17
2019-01-21T05:20:52.366Z,31.57
2019-01-21T05:23:58.118Z,37.80
2019-01-21T05:27:08.101Z,48.80
2019-01-21T05:30:36.370Z,38.33
2019-01-21T05:33:42.677Z,39.13
2019-01-21T05:36:25.639Z,37.67
2019-01-21T05:39:24.743Z,36.08
2019-01-21T05:42:30.744Z,36.17
2019-01-21T05:45:22.530Z,36.60
2019-01-21T05:48:29.284Z,36.70
2019-01-21T05:51:54.904Z,42.00
2019-01-21T05:54:56.035Z,39.70
2019-01-21T05:58:04.857Z,37.93
2019-01-21T06:01:20.252Z,36.60
2019-01-21T06:04:27.258Z,36.03
2019-01-21T06:07:49.114Z,36.13
2019-01-21T06:10:32.814Z,32.33
2019-01-21T06:13:46.793Z,37.57
2019-01-21T06:16:24.157Z,34.57
2019-01-21T06:19:37.181Z,33.23
2019-01-21T06:22:45.617Z,33.10
2019-01-21T06:25:38.414Z,36.13
2019-01-21T06:28:33.490Z,37.20
2019-01-21T06:31:39.616Z,40.17
2019-01-21T06:34:55.508Z,33.63
2019-01-21T06:37:39.760Z,37.30
2019-01-21T06:40:31.630Z,34.77
2019-01-21T06:43:35.897Z,32.10
2019-01-21T06:46:59.962Z,38.57
2019-01-21T06:50:10.247Z,32.73
2019-01-21T06:53:28.368Z,36.33
2019-01-21T06:56:29.557Z,35.57
2019-01-21T06:59:27.107Z,41.13
2019-01-21T07:02:36.343Z,33.10
2019-01-21T07:05:23.057Z,37.07
2019-01-21T07:08:25.766Z,45.13
2019-01-21T07:11:19.364Z,38.40
2019-01-21T07:14:18.564Z,32.37
2019-01-21T07:16:58.709Z,37.63
2019-01-21T07:20:12.412Z,32.70
2019-01-21T07:23:31.857Z,33.80
2019-01-21T07:26:11.758Z,35.83
2019-01-21T07:29:12.237Z,36.30
2019-01-21T07:32:18.022Z,36.83
2019-01-21T07:35:31.195Z,35.83
2019-01-21T07:38:21.794Z,37.10
2019-01-21T07:41:12.736Z,37.33
2019-01-21T07:44:25.393Z,36.53
2019-01-21T07:47:36.898Z,39.30
2019-01-21T07:50:37.067Z,37.53
2019-01-21T07:53:27.871Z,37.10
2019-01-21T07:56:33.842Z,40.47
2019-01-21T07:59:32.108Z,40.30
2019-01-21T08:02:21.469Z,43.50
2019-01-21T08:05:31.977Z,45.87
2019-01-21T08:08:13.803Z,44.27
2019-01-21T08:11:03.283Z,46.20
2019-01-21T08:13:44.108Z,49.87
2019-01-21T08:16:44.314Z,45.50
2019-01-21T08:20:09.717Z,47.90
2019-01-21T08:23:18.350Z,45.20
2019-01-21T08:26:15.701Z,43.80
2019-01-21T08:29:14.082Z,44.43
2019-01-21T08:32:24.533Z,46.57
2019-01-21T08:35:17.908Z,45.77
2019-01-21T08:38:15.402Z,49.60
2019-01-21T08:41:40.806Z,48.50
2019-01-21T08:44:51.072Z,53.27
2019-01-21T08:47:29.740Z,60.77
2019-01-21T08:51:01.088Z,54.17
2019-01-21T08:53:52.274Z,50.00
2019-01-21T08:57:01.864Z,56.30
2019-01-21T08:59:49.235Z,59.10
2019-01-21T09:02:58.754Z,51.83
2019-01-21T09:05:55.854Z,46.37
2019-01-21T09:09:07.990Z,47.50
2019-01-21T09:12:31.119Z,54.23
2019-01-21T09:15:34.583Z,47.87
2019-01-21T09:18:53.333Z,43.27
2019-01-21T09:21:49.713Z,48.47
2019-01-21T09:25:00.345Z,49.60
2019-01-21T09:28:11.200Z,46.43
2019-01-21T09:31:03.250Z,47.70
2019-01-21T09:34:18.301Z,47.87
2019-01-21T09:37:21.836Z,48.67
2019-01-21T09:40:27.152Z,47.90
2019-01-21T09:43:13.154Z,47.73
2019-01-21T09:46:25.842Z,45.67
2019-01-21T09:48:54.398Z,47.00
2019-01-21T09:51:22.804Z,44.60
2019-01-21T09:53:56.339Z,47.53
2019-01-21T09:56:28.077Z,41.57
2019-01-21T09:58:58.371Z,46.17
2019-01-21T10:01:26.577Z,44.80
2019-01-21T10:03:54.833Z,55.93
2019-01-21T10:06:45.556Z,46.23
2019-01-21T10:09:48.265Z,56.27
2019-01-21T10:13:08.692Z,55.07
2019-01-21T10:16:18.340Z,53.60
2019-01-21T10:19:11.065Z,51.93
2019-01-21T10:22:36.752Z,52.10
2019-01-21T10:25:33.367Z,53.13
2019-01-21T10:28:30.186Z,52.73
2019-01-21T10:31:35.166Z,53.70
2019-01-21T10:34:35.806Z,54.80
2019-01-21T10:38:01.267Z,46.97
2019-01-21T10:40:43.335Z,48.93
2019-01-21T10:43:48.195Z,48.50
2019-01-21T10:46:53.064Z,52.43
2019-01-21T10:49:57.501Z,48.70
2019-01-21T10:52:48.977Z,49.73
2019-01-21T10:55:39.633Z,43.93
2019-01-21T10:58:25.640Z,51.83
2019-01-21T11:01:42.536Z,46.47
2019-01-21T11:04:24.431Z,51.57
2019-01-21T11:07:31.335Z,45.73
2019-01-21T11:10:32.688Z,52.40
2019-01-21T11:13:44.399Z,42.20
2019-01-21T11:17:18.794Z,43.40
2019-01-21T11:20:15.669Z,44.13
2019-01-21T11:23:00.903Z,47.43
2019-01-21T11:26:06.581Z,46.10
2019-01-21T11:29:08.409Z,44.67
2019-01-21T11:31:55.306Z,46.42
2019-01-21T11:35:05.121Z,42.07
2019-01-21T11:38:01.607Z,62.30
2019-01-21T11:41:00.221Z,45.90
2019-01-21T11:44:00.252Z,44.03
2019-01-21T11:47:10.041Z,42.80
2019-01-21T11:50:22.214Z,48.87
2019-01-21T11:53:32.535Z,42.73
2019-01-21T11:56:16.298Z,47.00
2019-01-21T11:59:21.874Z,38.57
2019-01-21T12:02:18.266Z,41.97
2019-01-21T12:05:08.709Z,35.28
2019-01-21T12:08:34.406Z,38.50
2019-01-21T12:11:46.881Z,34.50
2019-01-21T12:14:51.732Z,33.60
2019-01-21T12:17:59.714Z,32.47
2019-01-21T12:21:15.443Z,38.97
2019-01-21T12:24:17.288Z,36.60
2019-01-21T12:27:17.052Z,40.57
2019-01-21T12:29:57.939Z,39.37
2019-01-21T12:32:59.563Z,35.80
2019-01-21T12:35:52.816Z,42.83
2019-01-21T12:38:45.956Z,48.40
2019-01-21T12:41:45.919Z,34.57
2019-01-21T12:44:42.991Z,32.70
2019-01-21T12:47:34.876Z,34.17
2019-01-21T12:50:43.690Z,36.17
2019-01-21T12:53:49.699Z,41.37
2019-01-21T12:57:16.104Z,37.03
2019-01-21T13:00:09.110Z,36.50
2019-01-21T13:03:07.730Z,29.90
2019-01-21T13:05:57.326Z,42.43
2019-01-21T13:08:43.186Z,32.88
2019-01-21T13:11:41.731Z,35.70
2019-01-21T13:14:57.974Z,31.60
2019-01-21T13:18:20.421Z,34.23
2019-01-21T13:21:51.437Z,41.10
2019-01-21T13:24:51.039Z,38.08
2019-01-21T13:27:46.188Z,40.03
2019-01-21T13:30:43.558Z,36.37
2019-01-21T13:33:36.923Z,39.90
2019-01-21T13:36:43.277Z,37.30
2019-01-21T13:39:49.230Z,36.70
2019-01-21T13:42:56.030Z,35.83
2019-01-21T13:46:14.260Z,33.73
2019-01-21T13:49:17.363Z,33.60
2019-01-21T13:52:05.194Z,35.43
2019-01-21T13:54:55.483Z,35.87
2019-01-21T13:58:20.312Z,36.48
2019-01-21T14:01:07.506Z,34.80
2019-01-21T14:04:17.715Z,36.70
2019-01-21T14:07:23.544Z,40.50
2019-01-21T14:10:25.786Z,38.57
2019-01-21T14:13:29.063Z,35.00
2019-01-21T14:16:12.981Z,40.57
2019-01-21T14:19:16.543Z,36.30
2019-01-21T14:22:12.139Z,38.27
2019-01-21T14:25:10.439Z,36.97
2019-01-21T14:28:14.566Z,35.53
2019-01-21T14:31:19.282Z,36.17
2019-01-21T14:34:07.445Z,37.85
2019-01-21T14:37:12.467Z,37.37
2019-01-21T14:39:53.618Z,35.67
2019-01-21T14:43:00.921Z,33.80
2019-01-21T14:46:14.469Z,37.37
2019-01-21T14:49:13.729Z,35.53
2019-01-21T14:52:24.255Z,37.03
2019-01-21T14:55:20.725Z,38.60
2019-01-21T14:58:35.670Z,35.87
2019-01-21T15:01:41.091Z,38.23
2019-01-21T15:04:50.823Z,38.23
2019-01-21T15:07:47.989Z,36.97
2019-01-21T15:10:36.836Z,33.00
2019-01-21T15:13:30.940Z,40.10
2019-01-21T15:16:20.494Z,38.87
2019-01-21T15:19:14.270Z,42.27
2019-01-21T15:22:24.847Z,37.67
2019-01-21T15:25:40.938Z,46.87
2019-01-21T15:28:37.042Z,38.40
2019-01-21T15:31:27.358Z,41.50
2019-01-21T15:34:10.913Z,47.80
2019-01-21T15:37:16.935Z,43.55
2019-01-21T15:40:25.764Z,42.93
2019-01-21T15:43:19.414Z,42.00
2019-01-21T15:46:30.330Z,44.50
2019-01-21T15:49:34.433Z,40.83
2019-01-21T15:52:50.524Z,47.67
2019-01-21T15:55:56.115Z,48.30
2019-01-21T15:59:11.527Z,40.88
2019-01-21T16:02:42.738Z,39.83
2019-01-21T16:06:07.370Z,48.10
2019-01-21T16:09:26.717Z,40.47
2019-01-21T16:12:07.142Z,41.77
2019-01-21T16:14:50.350Z,41.47
2019-01-21T16:17:48.810Z,41.70
2019-01-21T16:20:48.159Z,43.37
2019-01-21T16:24:10.453Z,45.27
2019-01-21T16:27:00.976Z,40.50
2019-01-21T16:30:04.908Z,38.00
2019-01-21T16:33:03.882Z,40.13
2019-01-21T16:36:10.625Z,45.00
2019-01-21T16:38:58.209Z,40.30
2019-01-21T16:41:51.755Z,46.65
2019-01-21T16:44:32.990Z,45.60
2019-01-21T16:47:03.289Z,42.77
2019-01-21T16:49:36.707Z,38.77
2019-01-21T16:52:14.783Z,42.50
2019-01-21T16:54:43.598Z,41.30
2019-01-21T16:57:12.780Z,43.60
2019-01-21T16:59:44.134Z,49.67
2019-01-21T17:02:12.533Z,47.90
2019-01-21T17:04:52.867Z,45.03
2019-01-21T17:07:21.071Z,48.43
2019-01-21T17:09:50.239Z,49.27
2019-01-21T17:12:18.441Z,47.77
2019-01-21T17:14:46.727Z,50.53
2019-01-21T17:17:14.986Z,41.40
2019-01-21T17:19:48.123Z,43.87
2019-01-21T17:22:19.412Z,44.33
2019-01-21T17:24:51.673Z,45.57
2019-01-21T17:27:21.973Z,48.15
2019-01-21T17:29:54.429Z,41.10
2019-01-21T17:32:23.283Z,42.00
2019-01-21T17:34:51.336Z,38.58
2019-01-21T17:37:19.496Z,37.77
2019-01-21T17:39:48.709Z,45.33
2019-01-21T17:42:17.124Z,41.03
2019-01-21T17:44:46.230Z,43.03
2019-01-21T17:47:16.933Z,44.50
2019-01-21T17:49:45.218Z,66.73
2019-01-21T17:52:13.569Z,42.93
2019-01-21T17:54:42.130Z,45.97
2019-01-21T17:57:12.094Z,43.10
2019-01-21T17:59:48.627Z,44.73
2019-01-21T18:02:19.116Z,48.87
2019-01-21T18:04:48.364Z,47.53
2019-01-21T18:07:17.772Z,50.37
2019-01-21T18:09:47.265Z,61.50
2019-01-21T18:12:15.421Z,50.70
2019-01-21T18:14:44.272Z,48.73
2019-01-21T18:17:13.543Z,44.07
2019-01-21T18:19:50.653Z,44.93
2019-01-21T18:22:18.915Z,50.87
2019-01-21T18:24:47.433Z,51.67
2019-01-21T18:27:16.517Z,54.27
2019-01-21T18:29:54.458Z,50.93
2019-01-21T18:32:23.680Z,48.23
2019-01-21T18:35:02.867Z,47.17
2019-01-21T18:37:33.502Z,44.27
2019-01-21T18:40:10.262Z,42.77
2019-01-21T18:42:38.474Z,45.70
2019-01-21T18:45:07.328Z,41.97
2019-01-21T18:47:36.583Z,47.60
2019-01-21T18:50:10.859Z,48.30
2019-01-21T18:52:39.039Z,45.60
2019-01-21T18:55:08.533Z,48.93
2019-01-21T18:57:36.727Z,53.03
2019-01-21T19:00:18.425Z,50.60
2019-01-21T19:02:53.035Z,49.37
2019-01-21T19:05:21.256Z,52.70
2019-01-21T19:07:51.688Z,51.27
2019-01-21T19:10:20.422Z,55.10
2019-01-21T19:12:48.760Z,58.40
2019-01-21T19:15:23.089Z,67.27
2019-01-21T19:17:51.330Z,58.77
2019-01-21T19:20:20.059Z,55.03
2019-01-21T19:22:48.313Z,53.30
2019-01-21T19:25:17.093Z,47.53
2019-01-21T19:27:45.301Z,51.97
2019-01-21T19:30:17.124Z,65.73
2019-01-21T19:32:45.752Z,63.30
2019-01-21T19:35:15.854Z,56.17
2019-01-21T19:37:44.333Z,65.60
2019-01-21T19:40:15.409Z,61.83
2019-01-21T19:42:43.969Z,62.37
2019-01-21T19:45:12.555Z,68.53
2019-01-21T19:47:40.739Z,59.03
2019-01-21T19:50:10.303Z,65.37
2019-01-21T19:52:38.542Z,63.57
2019-01-21T19:55:10.652Z,73.70
2019-01-21T19:57:39.923Z,85.97
2019-01-21T20:00:12.501Z,83.63
2019-01-21T20:02:40.717Z,76.20
2019-01-21T20:05:09.304Z,73.33
2019-01-21T20:07:37.902Z,67.37
2019-01-21T20:10:07.717Z,54.97
2019-01-21T20:12:35.880Z,49.93
2019-01-21T20:15:05.111Z,53.53
2019-01-21T20:17:33.813Z,48.90
2019-01-21T20:20:02.048Z,56.17
2019-01-21T20:22:30.198Z,52.87
2019-01-21T20:25:00.430Z,55.93
2019-01-21T20:27:29.066Z,53.77
2019-01-21T20:29:57.299Z,67.27
2019-01-21T20:32:25.446Z,63.03
2019-01-21T20:34:53.624Z,55.60
2019-01-21T20:37:22.370Z,59.87
2019-01-21T20:39:51.726Z,61.00
2019-01-21T20:42:19.686Z,56.13
2019-01-21T20:44:49.514Z,57.77
2019-01-21T20:47:18.591Z,52.33
2019-01-21T20:49:47.150Z,63.80
2019-01-21T20:52:15.352Z,60.23
2019-01-21T20:54:43.904Z,60.10
2019-01-21T20:57:13.131Z,55.67
2019-01-21T20:59:42.328Z,51.87
2019-01-21T21:02:10.516Z,51.73
2019-01-21T21:04:38.690Z,51.80
2019-01-21T21:07:07.884Z,59.53
2019-01-21T21:09:36.050Z,52.93
2019-01-21T21:12:05.250Z,54.07
2019-01-21T21:14:33.696Z,54.30
2019-01-21T21:17:02.923Z,57.47
2019-01-21T21:19:32.517Z,56.50
2019-01-21T21:22:01.714Z,56.73
2019-01-21T21:24:29.887Z,63.10
2019-01-21T21:26:58.090Z,66.30
2019-01-21T21:29:26.936Z,57.47
2019-01-21T21:31:55.185Z,59.83
2019-01-21T21:34:24.586Z,55.50
2019-01-21T21:36:52.973Z,53.63
2019-01-21T21:39:21.694Z,57.93
2019-01-21T21:41:49.884Z,54.40
2019-01-21T21:44:18.056Z,50.37
2019-01-21T21:46:46.580Z,54.10
2019-01-21T21:49:15.701Z,57.27
2019-01-21T21:51:43.809Z,59.27
2019-01-21T21:54:11.968Z,55.35
2019-01-21T21:56:40.221Z,62.47
2019-01-21T21:59:08.422Z,57.53
2019-01-21T22:01:55.996Z,66.07
2019-01-21T22:04:25.602Z,64.30
2019-01-21T22:06:54.771Z,65.07
2019-01-21T22:09:23.305Z,63.20
2019-01-21T22:11:51.510Z,67.90
2019-01-21T22:14:19.666Z,66.93
2019-01-21T22:16:47.853Z,66.13
2019-01-21T22:19:16.025Z,69.77
2019-01-21T22:21:44.582Z,65.00
2019-01-21T22:24:13.089Z,68.80
2019-01-21T22:26:41.635Z,68.50
2019-01-21T22:29:09.846Z,70.80
2019-01-21T22:31:38.062Z,69.03
2019-01-21T22:34:06.184Z,69.75
2019-01-21T22:36:34.592Z,68.07
2019-01-21T22:39:02.740Z,60.80
2019-01-21T22:41:34.529Z,55.90
2019-01-21T22:44:12.979Z,58.33
2019-01-21T22:46:41.211Z,57.57
2019-01-21T22:49:09.363Z,56.67
2019-01-21T22:51:37.939Z,56.53
2019-01-21T22:54:06.518Z,53.90
2019-01-21T22:56:36.086Z,55.63
2019-01-21T22:59:05.222Z,55.23
2019-01-21T23:01:33.839Z,55.30
2019-01-21T23:04:02.244Z,57.87
2019-01-21T23:06:30.871Z,57.37
2019-01-21T23:08:59.420Z,55.63
2019-01-21T23:11:27.698Z,52.07
2019-01-21T23:13:56.550Z,54.47
2019-01-21T23:16:24.708Z,57.63
2019-01-21T23:18:52.859Z,54.17
2019-01-21T23:21:21.043Z,62.00
2019-01-21T23:23:49.537Z,57.50
2019-01-21T23:26:19.171Z,60.73
2019-01-21T23:28:47.403Z,51.30
2019-01-21T23:31:15.873Z,54.77
2019-01-21T23:33:44.419Z,64.17
2019-01-21T23:36:16.735Z,51.95
2019-01-21T23:38:49.229Z,51.35
2019-01-21T23:41:17.787Z,54.37
2019-01-21T23:43:45.977Z,58.73
2019-01-21T23:46:14.138Z,54.00
2019-01-21T23:48:42.316Z,54.80
2019-01-21T23:51:12.835Z,55.80
2019-01-21T23:53:41.267Z,55.50
2019-01-21T23:56:10.728Z,53.90
2019-01-21T23:58:42.201Z,57.00
